sensor_id;sensor_type;location;lat;lon;timestamp;P1;durP1;ratioP1;P2;durP2;ratioP2
30862;SDS011;17573;55.922;37.540;2024-03-22T00:00:13;25.52;;;15.70;;
30862;SDS011;17573;55.922;37.540;2024-03-22T00:02:40;30.35;;;14.25;;
30862;SDS011;17573;55.922;37.540;2024-03-22T00:05:06;29.40;;;16.00;;
30862;SDS011;17573;55.922;37.540;2024-03-22T00:07:32;41.92;;;16.25;;
30862;SDS011;17573;55.922;37.540;2024-03-22T00:09:58;31.75;;;15.43;;
30862;SDS011;17573;55.922;37.540;2024-03-22T00:12:24;29.80;;;15.88;;
30862;SDS011;17573;55.922;37.540;2024-03-22T00:14:51;29.55;;;14.80;;
30862;SDS011;17573;55.922;37.540;2024-03-22T00:17:20;36.05;;;15.63;;
30862;SDS011;17573;55.922;37.540;2024-03-22T00:19:46;35.25;;;14.15;;
30862;SDS011;17573;55.922;37.540;2024-03-22T00:22:12;36.30;;;15.25;;
30862;SDS011;17573;55.922;37.540;2024-03-22T00:24:38;34.15;;;13.98;;
30862;SDS011;17573;55.922;37.540;2024-03-22T00:27:04;30.98;;;13.52;;
30862;SDS011;17573;55.922;37.540;2024-03-22T00:29:30;37.97;;;15.52;;
30862;SDS011;17573;55.922;37.540;2024-03-22T00:31:55;37.95;;;13.70;;
30862;SDS011;17573;55.922;37.540;2024-03-22T00:34:21;33.38;;;15.90;;
30862;SDS011;17573;55.922;37.540;2024-03-22T00:36:47;39.58;;;15.30;;
30862;SDS011;17573;55.922;37.540;2024-03-22T00:39:13;22.73;;;14.23;;
30862;SDS011;17573;55.922;37.540;2024-03-22T00:41:39;26.08;;;14.90;;
30862;SDS011;17573;55.922;37.540;2024-03-22T00:44:05;34.70;;;14.35;;
30862;SDS011;17573;55.922;37.540;2024-03-22T00:46:31;28.85;;;13.90;;
30862;SDS011;17573;55.922;37.540;2024-03-22T00:48:57;37.22;;;15.63;;
30862;SDS011;17573;55.922;37.540;2024-03-22T00:51:25;31.00;;;15.48;;
30862;SDS011;17573;55.922;37.540;2024-03-22T00:53:51;24.35;;;13.52;;
30862;SDS011;17573;55.922;37.540;2024-03-22T00:56:17;35.10;;;14.90;;
30862;SDS011;17573;55.922;37.540;2024-03-22T00:58:43;25.15;;;14.88;;
30862;SDS011;17573;55.922;37.540;2024-03-22T01:01:09;27.23;;;15.27;;
30862;SDS011;17573;55.922;37.540;2024-03-22T01:03:34;19.75;;;13.85;;
30862;SDS011;17573;55.922;37.540;2024-03-22T01:06:01;27.00;;;13.75;;
30862;SDS011;17573;55.922;37.540;2024-03-22T01:08:27;31.30;;;14.63;;
30862;SDS011;17573;55.922;37.540;2024-03-22T01:10:53;30.52;;;14.90;;
30862;SDS011;17573;55.922;37.540;2024-03-22T01:13:19;25.55;;;14.02;;
30862;SDS011;17573;55.922;37.540;2024-03-22T01:15:45;23.25;;;16.42;;
30862;SDS011;17573;55.922;37.540;2024-03-22T01:18:13;32.70;;;13.48;;
30862;SDS011;17573;55.922;37.540;2024-03-22T01:20:39;28.60;;;12.85;;
30862;SDS011;17573;55.922;37.540;2024-03-22T01:23:05;42.67;;;18.35;;
30862;SDS011;17573;55.922;37.540;2024-03-22T01:25:31;24.30;;;13.98;;
30862;SDS011;17573;55.922;37.540;2024-03-22T01:27:57;26.60;;;14.98;;
30862;SDS011;17573;55.922;37.540;2024-03-22T01:30:23;36.53;;;15.10;;
30862;SDS011;17573;55.922;37.540;2024-03-22T01:32:49;28.02;;;12.85;;
30862;SDS011;17573;55.922;37.540;2024-03-22T01:35:15;38.38;;;14.73;;
30862;SDS011;17573;55.922;37.540;2024-03-22T01:37:41;32.42;;;15.13;;
30862;SDS011;17573;55.922;37.540;2024-03-22T01:40:07;29.02;;;14.55;;
30862;SDS011;17573;55.922;37.540;2024-03-22T01:42:33;31.92;;;15.18;;
30862;SDS011;17573;55.922;37.540;2024-03-22T01:44:59;23.60;;;14.07;;
30862;SDS011;17573;55.922;37.540;2024-03-22T01:47:25;25.10;;;13.82;;
30862;SDS011;17573;55.922;37.540;2024-03-22T01:49:53;28.75;;;14.10;;
30862;SDS011;17573;55.922;37.540;2024-03-22T01:52:20;26.45;;;14.00;;
30862;SDS011;17573;55.922;37.540;2024-03-22T01:54:46;41.33;;;16.00;;
30862;SDS011;17573;55.922;37.540;2024-03-22T01:57:12;40.40;;;15.55;;
30862;SDS011;17573;55.922;37.540;2024-03-22T01:59:38;27.80;;;15.65;;
30862;SDS011;17573;55.922;37.540;2024-03-22T02:02:04;25.50;;;14.13;;
30862;SDS011;17573;55.922;37.540;2024-03-22T02:04:30;28.70;;;13.45;;
30862;SDS011;17573;55.922;37.540;2024-03-22T02:06:56;29.60;;;13.52;;
30862;SDS011;17573;55.922;37.540;2024-03-22T02:09:22;35.53;;;13.35;;
30862;SDS011;17573;55.922;37.540;2024-03-22T02:11:48;23.17;;;13.90;;
30862;SDS011;17573;55.922;37.540;2024-03-22T02:14:14;35.15;;;14.15;;
30862;SDS011;17573;55.922;37.540;2024-03-22T02:16:40;25.33;;;13.38;;
30862;SDS011;17573;55.922;37.540;2024-03-22T02:19:06;26.58;;;14.18;;
30862;SDS011;17573;55.922;37.540;2024-03-22T02:21:32;23.83;;;13.15;;
30862;SDS011;17573;55.922;37.540;2024-03-22T02:23:59;23.50;;;14.10;;
30862;SDS011;17573;55.922;37.540;2024-03-22T02:26:24;31.42;;;15.77;;
30862;SDS011;17573;55.922;37.540;2024-03-22T02:28:50;27.38;;;14.20;;
30862;SDS011;17573;55.922;37.540;2024-03-22T02:31:16;28.77;;;14.73;;
30862;SDS011;17573;55.922;37.540;2024-03-22T02:33:42;30.33;;;14.02;;
30862;SDS011;17573;55.922;37.540;2024-03-22T02:36:08;28.83;;;14.27;;
30862;SDS011;17573;55.922;37.540;2024-03-22T02:38:34;37.03;;;14.60;;
30862;SDS011;17573;55.922;37.540;2024-03-22T02:41:00;42.97;;;15.68;;
30862;SDS011;17573;55.922;37.540;2024-03-22T02:43:26;26.25;;;14.57;;
30862;SDS011;17573;55.922;37.540;2024-03-22T02:45:52;48.28;;;14.70;;
30862;SDS011;17573;55.922;37.540;2024-03-22T02:48:17;35.63;;;13.93;;
30862;SDS011;17573;55.922;37.540;2024-03-22T02:50:43;39.45;;;15.57;;
30862;SDS011;17573;55.922;37.540;2024-03-22T02:53:09;31.13;;;14.65;;
30862;SDS011;17573;55.922;37.540;2024-03-22T02:55:39;28.15;;;14.55;;
30862;SDS011;17573;55.922;37.540;2024-03-22T02:58:06;35.42;;;15.75;;
30862;SDS011;17573;55.922;37.540;2024-03-22T03:00:39;35.60;;;14.40;;
30862;SDS011;17573;55.922;37.540;2024-03-22T03:03:05;33.55;;;14.63;;
30862;SDS011;17573;55.922;37.540;2024-03-22T03:05:32;26.55;;;14.70;;
30862;SDS011;17573;55.922;37.540;2024-03-22T03:07:58;28.70;;;15.43;;
30862;SDS011;17573;55.922;37.540;2024-03-22T03:10:24;37.85;;;15.65;;
30862;SDS011;17573;55.922;37.540;2024-03-22T03:12:50;31.45;;;16.02;;
30862;SDS011;17573;55.922;37.540;2024-03-22T03:15:16;39.47;;;18.23;;
30862;SDS011;17573;55.922;37.540;2024-03-22T03:17:42;42.13;;;16.27;;
30862;SDS011;17573;55.922;37.540;2024-03-22T03:20:08;41.10;;;16.50;;
30862;SDS011;17573;55.922;37.540;2024-03-22T03:22:36;33.42;;;15.98;;
30862;SDS011;17573;55.922;37.540;2024-03-22T03:25:03;38.10;;;15.93;;
30862;SDS011;17573;55.922;37.540;2024-03-22T03:27:30;39.67;;;17.85;;
30862;SDS011;17573;55.922;37.540;2024-03-22T03:29:56;26.05;;;15.05;;
30862;SDS011;17573;55.922;37.540;2024-03-22T03:32:22;35.25;;;15.40;;
30862;SDS011;17573;55.922;37.540;2024-03-22T03:34:49;30.40;;;14.70;;
30862;SDS011;17573;55.922;37.540;2024-03-22T03:37:14;38.90;;;15.50;;
30862;SDS011;17573;55.922;37.540;2024-03-22T03:39:40;43.70;;;18.20;;
30862;SDS011;17573;55.922;37.540;2024-03-22T03:42:06;33.40;;;16.58;;
30862;SDS011;17573;55.922;37.540;2024-03-22T03:44:32;40.50;;;17.38;;
30862;SDS011;17573;55.922;37.540;2024-03-22T03:47:01;50.53;;;21.60;;
30862;SDS011;17573;55.922;37.540;2024-03-22T03:49:27;49.05;;;16.08;;
30862;SDS011;17573;55.922;37.540;2024-03-22T03:51:53;38.95;;;16.48;;
30862;SDS011;17573;55.922;37.540;2024-03-22T03:54:19;33.28;;;16.58;;
30862;SDS011;17573;55.922;37.540;2024-03-22T03:56:45;41.25;;;18.10;;
30862;SDS011;17573;55.922;37.540;2024-03-22T03:59:10;35.05;;;18.90;;
30862;SDS011;17573;55.922;37.540;2024-03-22T04:01:36;38.33;;;16.67;;
30862;SDS011;17573;55.922;37.540;2024-03-22T04:04:02;47.55;;;17.52;;
30862;SDS011;17573;55.922;37.540;2024-03-22T04:06:29;44.00;;;18.55;;
30862;SDS011;17573;55.922;37.540;2024-03-22T04:08:55;42.38;;;18.40;;
30862;SDS011;17573;55.922;37.540;2024-03-22T04:11:23;45.60;;;18.35;;
30862;SDS011;17573;55.922;37.540;2024-03-22T04:13:49;43.60;;;18.85;;
30862;SDS011;17573;55.922;37.540;2024-03-22T04:16:15;43.30;;;18.48;;
30862;SDS011;17573;55.922;37.540;2024-03-22T04:18:41;38.63;;;16.88;;
30862;SDS011;17573;55.922;37.540;2024-03-22T04:21:07;34.78;;;17.00;;
30862;SDS011;17573;55.922;37.540;2024-03-22T04:23:33;41.05;;;16.90;;
30862;SDS011;17573;55.922;37.540;2024-03-22T04:25:59;59.67;;;20.80;;
30862;SDS011;17573;55.922;37.540;2024-03-22T04:28:26;47.17;;;19.10;;
30862;SDS011;17573;55.922;37.540;2024-03-22T04:33:25;49.00;;;18.42;;
30862;SDS011;17573;55.922;37.540;2024-03-22T04:35:51;55.00;;;21.25;;
30862;SDS011;17573;55.922;37.540;2024-03-22T04:38:17;49.13;;;18.23;;
30862;SDS011;17573;55.922;37.540;2024-03-22T04:40:43;42.58;;;22.00;;
30862;SDS011;17573;55.922;37.540;2024-03-22T04:43:09;45.80;;;20.42;;
30862;SDS011;17573;55.922;37.540;2024-03-22T04:45:35;46.35;;;21.02;;
30862;SDS011;17573;55.922;37.540;2024-03-22T04:48:01;34.75;;;18.02;;
30862;SDS011;17573;55.922;37.540;2024-03-22T04:50:28;41.35;;;18.88;;
30862;SDS011;17573;55.922;37.540;2024-03-22T04:52:54;36.03;;;17.00;;
30862;SDS011;17573;55.922;37.540;2024-03-22T04:55:20;36.83;;;19.15;;
30862;SDS011;17573;55.922;37.540;2024-03-22T04:57:46;57.20;;;19.70;;
30862;SDS011;17573;55.922;37.540;2024-03-22T05:00:13;44.38;;;19.35;;
30862;SDS011;17573;55.922;37.540;2024-03-22T05:02:39;52.40;;;20.45;;
30862;SDS011;17573;55.922;37.540;2024-03-22T05:05:05;44.70;;;20.23;;
30862;SDS011;17573;55.922;37.540;2024-03-22T05:07:31;66.75;;;27.20;;
30862;SDS011;17573;55.922;37.540;2024-03-22T05:09:57;34.63;;;17.48;;
30862;SDS011;17573;55.922;37.540;2024-03-22T05:12:23;47.70;;;18.00;;
30862;SDS011;17573;55.922;37.540;2024-03-22T05:14:49;70.20;;;19.30;;
30862;SDS011;17573;55.922;37.540;2024-03-22T05:17:14;55.72;;;19.20;;
30862;SDS011;17573;55.922;37.540;2024-03-22T05:19:40;53.47;;;20.00;;
30862;SDS011;17573;55.922;37.540;2024-03-22T05:22:06;56.17;;;18.17;;
30862;SDS011;17573;55.922;37.540;2024-03-22T05:24:32;60.08;;;21.77;;
30862;SDS011;17573;55.922;37.540;2024-03-22T05:26:58;81.47;;;25.75;;
30862;SDS011;17573;55.922;37.540;2024-03-22T05:29:25;78.35;;;23.42;;
30862;SDS011;17573;55.922;37.540;2024-03-22T05:31:51;72.53;;;24.05;;
30862;SDS011;17573;55.922;37.540;2024-03-22T05:34:18;60.85;;;20.92;;
30862;SDS011;17573;55.922;37.540;2024-03-22T05:36:45;53.08;;;19.65;;
30862;SDS011;17573;55.922;37.540;2024-03-22T05:39:11;47.33;;;19.80;;
30862;SDS011;17573;55.922;37.540;2024-03-22T05:41:37;38.45;;;18.52;;
30862;SDS011;17573;55.922;37.540;2024-03-22T05:44:03;79.88;;;22.48;;
30862;SDS011;17573;55.922;37.540;2024-03-22T05:46:29;51.80;;;20.40;;
30862;SDS011;17573;55.922;37.540;2024-03-22T05:48:59;77.38;;;19.20;;
30862;SDS011;17573;55.922;37.540;2024-03-22T05:51:25;35.22;;;18.98;;
30862;SDS011;17573;55.922;37.540;2024-03-22T05:53:51;46.20;;;17.50;;
30862;SDS011;17573;55.922;37.540;2024-03-22T05:56:17;53.45;;;19.33;;
30862;SDS011;17573;55.922;37.540;2024-03-22T05:58:43;46.05;;;19.40;;
30862;SDS011;17573;55.922;37.540;2024-03-22T06:01:09;53.95;;;18.65;;
30862;SDS011;17573;55.922;37.540;2024-03-22T06:03:35;40.55;;;18.40;;
30862;SDS011;17573;55.922;37.540;2024-03-22T06:06:01;37.80;;;18.33;;
30862;SDS011;17573;55.922;37.540;2024-03-22T06:08:27;50.08;;;18.02;;
30862;SDS011;17573;55.922;37.540;2024-03-22T06:10:53;37.92;;;17.55;;
30862;SDS011;17573;55.922;37.540;2024-03-22T06:13:20;41.72;;;17.63;;
30862;SDS011;17573;55.922;37.540;2024-03-22T06:15:48;37.50;;;17.50;;
30862;SDS011;17573;55.922;37.540;2024-03-22T06:18:14;56.78;;;18.70;;
30862;SDS011;17573;55.922;37.540;2024-03-22T06:20:41;43.00;;;17.85;;
30862;SDS011;17573;55.922;37.540;2024-03-22T06:23:07;36.40;;;18.08;;
30862;SDS011;17573;55.922;37.540;2024-03-22T06:25:34;35.05;;;16.33;;
30862;SDS011;17573;55.922;37.540;2024-03-22T06:28:00;40.90;;;17.02;;
30862;SDS011;17573;55.922;37.540;2024-03-22T06:30:26;51.35;;;18.83;;
30862;SDS011;17573;55.922;37.540;2024-03-22T06:32:53;51.60;;;19.02;;
30862;SDS011;17573;55.922;37.540;2024-03-22T06:35:20;46.42;;;17.20;;
30862;SDS011;17573;55.922;37.540;2024-03-22T06:37:46;52.63;;;17.45;;
30862;SDS011;17573;55.922;37.540;2024-03-22T06:40:16;58.58;;;17.73;;
30862;SDS011;17573;55.922;37.540;2024-03-22T06:42:42;52.80;;;18.13;;
30862;SDS011;17573;55.922;37.540;2024-03-22T06:45:08;40.25;;;17.58;;
30862;SDS011;17573;55.922;37.540;2024-03-22T06:47:35;34.92;;;18.35;;
30862;SDS011;17573;55.922;37.540;2024-03-22T06:50:01;57.97;;;17.52;;
30862;SDS011;17573;55.922;37.540;2024-03-22T06:52:26;39.10;;;15.95;;
30862;SDS011;17573;55.922;37.540;2024-03-22T06:54:52;38.90;;;17.98;;
30862;SDS011;17573;55.922;37.540;2024-03-22T06:57:18;40.88;;;14.38;;
30862;SDS011;17573;55.922;37.540;2024-03-22T06:59:44;44.03;;;17.20;;
30862;SDS011;17573;55.922;37.540;2024-03-22T07:02:10;41.80;;;16.23;;
30862;SDS011;17573;55.922;37.540;2024-03-22T07:04:36;52.28;;;16.52;;
30862;SDS011;17573;55.922;37.540;2024-03-22T07:07:02;28.75;;;12.77;;
30862;SDS011;17573;55.922;37.540;2024-03-22T07:09:28;44.03;;;16.08;;
30862;SDS011;17573;55.922;37.540;2024-03-22T07:11:55;45.35;;;14.75;;
30862;SDS011;17573;55.922;37.540;2024-03-22T07:14:21;34.50;;;14.07;;
30862;SDS011;17573;55.922;37.540;2024-03-22T07:16:50;44.42;;;14.90;;
30862;SDS011;17573;55.922;37.540;2024-03-22T07:19:18;26.10;;;13.55;;
30862;SDS011;17573;55.922;37.540;2024-03-22T07:21:44;29.45;;;11.90;;
30862;SDS011;17573;55.922;37.540;2024-03-22T07:24:10;26.98;;;14.32;;
30862;SDS011;17573;55.922;37.540;2024-03-22T07:26:36;36.95;;;15.75;;
30862;SDS011;17573;55.922;37.540;2024-03-22T07:29:02;34.55;;;13.23;;
30862;SDS011;17573;55.922;37.540;2024-03-22T07:31:28;38.92;;;13.95;;
30862;SDS011;17573;55.922;37.540;2024-03-22T07:33:54;34.03;;;14.30;;
30862;SDS011;17573;55.922;37.540;2024-03-22T07:36:21;40.92;;;14.02;;
30862;SDS011;17573;55.922;37.540;2024-03-22T07:38:47;44.30;;;14.65;;
30862;SDS011;17573;55.922;37.540;2024-03-22T07:41:14;46.03;;;12.77;;
30862;SDS011;17573;55.922;37.540;2024-03-22T07:43:40;32.10;;;14.10;;
30862;SDS011;17573;55.922;37.540;2024-03-22T07:46:06;38.03;;;13.63;;
30862;SDS011;17573;55.922;37.540;2024-03-22T07:48:32;31.77;;;14.77;;
30862;SDS011;17573;55.922;37.540;2024-03-22T07:51:04;32.85;;;13.88;;
30862;SDS011;17573;55.922;37.540;2024-03-22T07:53:30;42.67;;;16.35;;
30862;SDS011;17573;55.922;37.540;2024-03-22T07:55:55;34.00;;;14.48;;
30862;SDS011;17573;55.922;37.540;2024-03-22T07:58:21;32.42;;;14.85;;
30862;SDS011;17573;55.922;37.540;2024-03-22T08:00:47;24.63;;;14.15;;
30862;SDS011;17573;55.922;37.540;2024-03-22T08:03:14;35.60;;;14.02;;
30862;SDS011;17573;55.922;37.540;2024-03-22T08:05:41;34.58;;;14.80;;
30862;SDS011;17573;55.922;37.540;2024-03-22T08:08:07;28.10;;;14.90;;
30862;SDS011;17573;55.922;37.540;2024-03-22T08:10:33;34.53;;;16.17;;
30862;SDS011;17573;55.922;37.540;2024-03-22T08:12:59;38.38;;;13.60;;
30862;SDS011;17573;55.922;37.540;2024-03-22T08:15:26;35.63;;;14.25;;
30862;SDS011;17573;55.922;37.540;2024-03-22T08:17:53;39.75;;;15.23;;
30862;SDS011;17573;55.922;37.540;2024-03-22T08:20:18;35.38;;;14.80;;
30862;SDS011;17573;55.922;37.540;2024-03-22T08:22:44;32.33;;;14.77;;
30862;SDS011;17573;55.922;37.540;2024-03-22T08:25:10;27.25;;;14.85;;
30862;SDS011;17573;55.922;37.540;2024-03-22T08:27:38;41.95;;;16.48;;
30862;SDS011;17573;55.922;37.540;2024-03-22T08:30:04;27.10;;;13.13;;
30862;SDS011;17573;55.922;37.540;2024-03-22T08:32:31;48.20;;;15.30;;
30862;SDS011;17573;55.922;37.540;2024-03-22T08:34:57;31.27;;;13.32;;
30862;SDS011;17573;55.922;37.540;2024-03-22T08:37:23;34.58;;;13.15;;
30862;SDS011;17573;55.922;37.540;2024-03-22T08:39:49;34.53;;;14.27;;
30862;SDS011;17573;55.922;37.540;2024-03-22T08:42:15;35.22;;;14.27;;
30862;SDS011;17573;55.922;37.540;2024-03-22T08:44:40;35.55;;;14.60;;
30862;SDS011;17573;55.922;37.540;2024-03-22T08:47:06;41.42;;;15.30;;
30862;SDS011;17573;55.922;37.540;2024-03-22T08:49:32;46.53;;;16.00;;
30862;SDS011;17573;55.922;37.540;2024-03-22T08:51:58;31.73;;;14.77;;
30862;SDS011;17573;55.922;37.540;2024-03-22T08:54:24;28.10;;;13.98;;
30862;SDS011;17573;55.922;37.540;2024-03-22T08:56:50;28.15;;;14.20;;
30862;SDS011;17573;55.922;37.540;2024-03-22T08:59:16;25.75;;;12.95;;
30862;SDS011;17573;55.922;37.540;2024-03-22T09:01:42;44.78;;;15.00;;
30862;SDS011;17573;55.922;37.540;2024-03-22T09:04:08;31.33;;;14.23;;
30862;SDS011;17573;55.922;37.540;2024-03-22T09:06:34;35.85;;;14.93;;
30862;SDS011;17573;55.922;37.540;2024-03-22T09:09:00;37.13;;;14.98;;
30862;SDS011;17573;55.922;37.540;2024-03-22T09:11:25;26.58;;;14.70;;
30862;SDS011;17573;55.922;37.540;2024-03-22T09:13:53;37.72;;;15.02;;
30862;SDS011;17573;55.922;37.540;2024-03-22T09:16:23;33.03;;;14.68;;
30862;SDS011;17573;55.922;37.540;2024-03-22T09:18:49;40.47;;;14.90;;
30862;SDS011;17573;55.922;37.540;2024-03-22T09:21:15;36.17;;;13.82;;
30862;SDS011;17573;55.922;37.540;2024-03-22T09:23:41;33.13;;;15.32;;
30862;SDS011;17573;55.922;37.540;2024-03-22T09:26:06;29.27;;;14.90;;
30862;SDS011;17573;55.922;37.540;2024-03-22T09:28:32;28.27;;;13.45;;
30862;SDS011;17573;55.922;37.540;2024-03-22T09:30:58;35.42;;;15.25;;
30862;SDS011;17573;55.922;37.540;2024-03-22T09:33:24;80.32;;;16.73;;
30862;SDS011;17573;55.922;37.540;2024-03-22T09:35:54;50.05;;;15.77;;
30862;SDS011;17573;55.922;37.540;2024-03-22T09:38:20;36.17;;;14.27;;
30862;SDS011;17573;55.922;37.540;2024-03-22T09:40:46;31.25;;;14.90;;
30862;SDS011;17573;55.922;37.540;2024-03-22T09:43:12;42.42;;;13.00;;
30862;SDS011;17573;55.922;37.540;2024-03-22T09:45:41;29.75;;;14.05;;
30862;SDS011;17573;55.922;37.540;2024-03-22T09:48:07;23.25;;;12.43;;
30862;SDS011;17573;55.922;37.540;2024-03-22T09:50:33;27.90;;;12.18;;
30862;SDS011;17573;55.922;37.540;2024-03-22T09:53:00;32.08;;;12.52;;
30862;SDS011;17573;55.922;37.540;2024-03-22T09:55:26;31.33;;;13.05;;
30862;SDS011;17573;55.922;37.540;2024-03-22T09:57:53;37.90;;;11.73;;
30862;SDS011;17573;55.922;37.540;2024-03-22T10:00:20;24.38;;;11.90;;
30862;SDS011;17573;55.922;37.540;2024-03-22T10:02:48;27.92;;;12.27;;
30862;SDS011;17573;55.922;37.540;2024-03-22T10:05:14;22.83;;;11.30;;
30862;SDS011;17573;55.922;37.540;2024-03-22T10:07:45;22.02;;;12.05;;
30862;SDS011;17573;55.922;37.540;2024-03-22T10:10:11;29.63;;;11.57;;
30862;SDS011;17573;55.922;37.540;2024-03-22T10:12:39;23.48;;;10.77;;
30862;SDS011;17573;55.922;37.540;2024-03-22T10:15:05;23.30;;;11.13;;
30862;SDS011;17573;55.922;37.540;2024-03-22T10:17:34;22.85;;;11.82;;
30862;SDS011;17573;55.922;37.540;2024-03-22T10:20:00;34.28;;;12.13;;
30862;SDS011;17573;55.922;37.540;2024-03-22T10:22:26;27.20;;;11.48;;
30862;SDS011;17573;55.922;37.540;2024-03-22T10:24:52;29.90;;;12.68;;
30862;SDS011;17573;55.922;37.540;2024-03-22T10:27:19;26.27;;;10.77;;
30862;SDS011;17573;55.922;37.540;2024-03-22T10:29:45;18.35;;;10.10;;
30862;SDS011;17573;55.922;37.540;2024-03-22T10:32:13;23.75;;;10.73;;
30862;SDS011;17573;55.922;37.540;2024-03-22T10:34:39;43.67;;;12.05;;
30862;SDS011;17573;55.922;37.540;2024-03-22T10:37:07;29.17;;;11.15;;
30862;SDS011;17573;55.922;37.540;2024-03-22T10:39:34;18.88;;;10.45;;
30862;SDS011;17573;55.922;37.540;2024-03-22T10:42:00;35.58;;;10.80;;
30862;SDS011;17573;55.922;37.540;2024-03-22T10:44:26;25.17;;;11.13;;
30862;SDS011;17573;55.922;37.540;2024-03-22T10:46:51;30.58;;;10.18;;
30862;SDS011;17573;55.922;37.540;2024-03-22T10:49:19;35.03;;;11.38;;
30862;SDS011;17573;55.922;37.540;2024-03-22T10:51:48;16.10;;;9.93;;
30862;SDS011;17573;55.922;37.540;2024-03-22T10:54:17;42.22;;;9.95;;
30862;SDS011;17573;55.922;37.540;2024-03-22T10:56:45;26.17;;;10.95;;
30862;SDS011;17573;55.922;37.540;2024-03-22T10:59:18;18.90;;;8.98;;
30862;SDS011;17573;55.922;37.540;2024-03-22T11:01:50;31.73;;;10.30;;
30862;SDS011;17573;55.922;37.540;2024-03-22T11:04:22;27.25;;;8.25;;
30862;SDS011;17573;55.922;37.540;2024-03-22T11:06:49;39.75;;;10.27;;
30862;SDS011;17573;55.922;37.540;2024-03-22T11:09:21;24.30;;;7.32;;
30862;SDS011;17573;55.922;37.540;2024-03-22T11:11:51;36.35;;;9.27;;
30862;SDS011;17573;55.922;37.540;2024-03-22T11:14:17;23.70;;;10.02;;
30862;SDS011;17573;55.922;37.540;2024-03-22T11:16:44;25.58;;;9.90;;
30862;SDS011;17573;55.922;37.540;2024-03-22T11:19:10;31.73;;;9.55;;
30862;SDS011;17573;55.922;37.540;2024-03-22T11:21:36;15.80;;;7.85;;
30862;SDS011;17573;55.922;37.540;2024-03-22T11:24:02;26.45;;;9.00;;
30862;SDS011;17573;55.922;37.540;2024-03-22T11:26:28;27.23;;;7.95;;
30862;SDS011;17573;55.922;37.540;2024-03-22T11:28:54;23.50;;;9.07;;
30862;SDS011;17573;55.922;37.540;2024-03-22T11:31:20;19.95;;;9.50;;
30862;SDS011;17573;55.922;37.540;2024-03-22T11:33:51;20.65;;;9.10;;
30862;SDS011;17573;55.922;37.540;2024-03-22T11:36:17;20.27;;;7.95;;
30862;SDS011;17573;55.922;37.540;2024-03-22T11:38:43;12.95;;;8.05;;
30862;SDS011;17573;55.922;37.540;2024-03-22T11:41:09;16.10;;;8.88;;
30862;SDS011;17573;55.922;37.540;2024-03-22T11:43:35;24.17;;;9.38;;
30862;SDS011;17573;55.922;37.540;2024-03-22T11:46:01;26.33;;;9.05;;
30862;SDS011;17573;55.922;37.540;2024-03-22T11:48:27;27.92;;;8.52;;
30862;SDS011;17573;55.922;37.540;2024-03-22T11:50:52;27.20;;;8.80;;
30862;SDS011;17573;55.922;37.540;2024-03-22T11:53:19;30.60;;;9.88;;
30862;SDS011;17573;55.922;37.540;2024-03-22T11:55:44;17.27;;;8.50;;
30862;SDS011;17573;55.922;37.540;2024-03-22T11:58:10;29.42;;;10.15;;
30862;SDS011;17573;55.922;37.540;2024-03-22T12:00:36;17.88;;;8.68;;
30862;SDS011;17573;55.922;37.540;2024-03-22T12:03:05;27.08;;;9.20;;
30862;SDS011;17573;55.922;37.540;2024-03-22T12:05:32;23.58;;;8.38;;
30862;SDS011;17573;55.922;37.540;2024-03-22T12:07:58;22.70;;;8.93;;
30862;SDS011;17573;55.922;37.540;2024-03-22T12:10:29;12.63;;;8.15;;
30862;SDS011;17573;55.922;37.540;2024-03-22T12:12:55;15.40;;;7.38;;
30862;SDS011;17573;55.922;37.540;2024-03-22T12:15:21;26.65;;;9.85;;
30862;SDS011;17573;55.922;37.540;2024-03-22T12:17:47;23.23;;;8.00;;
30862;SDS011;17573;55.922;37.540;2024-03-22T12:20:12;22.85;;;9.00;;
30862;SDS011;17573;55.922;37.540;2024-03-22T12:22:40;22.70;;;9.07;;
30862;SDS011;17573;55.922;37.540;2024-03-22T12:25:11;18.30;;;8.63;;
30862;SDS011;17573;55.922;37.540;2024-03-22T12:27:37;28.33;;;9.32;;
30862;SDS011;17573;55.922;37.540;2024-03-22T12:30:03;27.50;;;9.23;;
30862;SDS011;17573;55.922;37.540;2024-03-22T12:32:29;14.82;;;8.05;;
30862;SDS011;17573;55.922;37.540;2024-03-22T12:34:56;18.80;;;8.60;;
30862;SDS011;17573;55.922;37.540;2024-03-22T12:37:21;21.08;;;8.10;;
30862;SDS011;17573;55.922;37.540;2024-03-22T12:39:47;18.80;;;8.20;;
30862;SDS011;17573;55.922;37.540;2024-03-22T12:42:13;14.38;;;6.97;;
30862;SDS011;17573;55.922;37.540;2024-03-22T12:44:43;26.52;;;9.00;;
30862;SDS011;17573;55.922;37.540;2024-03-22T12:47:10;18.45;;;8.43;;
30862;SDS011;17573;55.922;37.540;2024-03-22T12:49:40;26.42;;;8.10;;
30862;SDS011;17573;55.922;37.540;2024-03-22T12:52:06;16.23;;;7.70;;
30862;SDS011;17573;55.922;37.540;2024-03-22T12:54:32;27.35;;;8.45;;
30862;SDS011;17573;55.922;37.540;2024-03-22T12:56:58;19.35;;;8.35;;
30862;SDS011;17573;55.922;37.540;2024-03-22T12:59:24;19.50;;;8.30;;
30862;SDS011;17573;55.922;37.540;2024-03-22T13:01:50;26.48;;;9.05;;
30862;SDS011;17573;55.922;37.540;2024-03-22T13:04:17;29.23;;;8.60;;
30862;SDS011;17573;55.922;37.540;2024-03-22T13:06:43;29.00;;;9.77;;
30862;SDS011;17573;55.922;37.540;2024-03-22T13:09:13;15.93;;;7.18;;
30862;SDS011;17573;55.922;37.540;2024-03-22T13:11:58;15.27;;;7.03;;
30862;SDS011;17573;55.922;37.540;2024-03-22T13:14:24;14.48;;;9.02;;
30862;SDS011;17573;55.922;37.540;2024-03-22T13:16:50;21.63;;;9.07;;
30862;SDS011;17573;55.922;37.540;2024-03-22T13:19:16;25.80;;;10.93;;
30862;SDS011;17573;55.922;37.540;2024-03-22T13:21:44;32.70;;;9.50;;
30862;SDS011;17573;55.922;37.540;2024-03-22T13:24:13;16.00;;;8.63;;
30862;SDS011;17573;55.922;37.540;2024-03-22T13:26:39;18.83;;;8.98;;
30862;SDS011;17573;55.922;37.540;2024-03-22T13:29:04;23.65;;;9.43;;
30862;SDS011;17573;55.922;37.540;2024-03-22T13:31:30;21.95;;;8.77;;
30862;SDS011;17573;55.922;37.540;2024-03-22T13:33:56;21.27;;;9.07;;
30862;SDS011;17573;55.922;37.540;2024-03-22T13:36:22;32.13;;;10.27;;
30862;SDS011;17573;55.922;37.540;2024-03-22T13:38:49;34.63;;;10.38;;
30862;SDS011;17573;55.922;37.540;2024-03-22T13:41:20;21.42;;;8.65;;
30862;SDS011;17573;55.922;37.540;2024-03-22T13:43:48;17.75;;;7.57;;
30862;SDS011;17573;55.922;37.540;2024-03-22T13:46:14;22.38;;;7.55;;
30862;SDS011;17573;55.922;37.540;2024-03-22T13:48:42;13.82;;;8.27;;
30862;SDS011;17573;55.922;37.540;2024-03-22T13:51:09;22.33;;;7.53;;
30862;SDS011;17573;55.922;37.540;2024-03-22T13:53:36;20.25;;;8.45;;
30862;SDS011;17573;55.922;37.540;2024-03-22T13:56:02;25.02;;;7.07;;
30862;SDS011;17573;55.922;37.540;2024-03-22T13:58:28;21.88;;;7.85;;
30862;SDS011;17573;55.922;37.540;2024-03-22T14:00:54;25.73;;;8.05;;
30862;SDS011;17573;55.922;37.540;2024-03-22T14:03:20;14.50;;;6.82;;
30862;SDS011;17573;55.922;37.540;2024-03-22T14:05:46;11.70;;;7.40;;
30862;SDS011;17573;55.922;37.540;2024-03-22T14:08:11;30.70;;;9.32;;